createdAt,value
2023-01-26T00:01:14.700Z,78.29
2023-01-26T00:04:57.387Z,78.04
2023-01-26T00:08:40.798Z,78.08
2023-01-26T00:12:23.476Z,77.42
2023-01-26T00:16:10.448Z,77.37
2023-01-26T00:19:55.171Z,77.52
2023-01-26T00:23:37.828Z,77.39
2023-01-26T00:27:20.525Z,76.98
2023-01-26T00:31:04.583Z,77.07
2023-01-26T00:34:48.664Z,77.30
2023-01-26T00:38:31.438Z,77.56
2023-01-26T00:42:15.839Z,77.64
2023-01-26T00:45:58.624Z,76.94
2023-01-26T00:49:41.358Z,77.00
2023-01-26T00:53:25.399Z,76.51
2023-01-26T00:57:08.262Z,76.94
2023-01-26T01:00:51.069Z,76.91
2023-01-26T01:04:33.827Z,77.18
2023-01-26T01:08:16.547Z,77.21
2023-01-26T01:12:00.592Z,76.85
2023-01-26T01:15:43.283Z,77.36
2023-01-26T01:19:26.038Z,77.77
2023-01-26T01:23:08.762Z,78.10
2023-01-26T01:26:51.396Z,77.85
2023-01-26T01:30:35.406Z,77.50
2023-01-26T01:34:18.085Z,77.00
2023-01-26T01:38:00.739Z,76.67
2023-01-26T01:41:43.437Z,77.22
2023-01-26T01:45:41.555Z,78.72
2023-01-26T01:49:27.630Z,78.34
2023-01-26T01:53:13.626Z,78.69
2023-01-26T01:56:59.536Z,78.30
2023-01-26T02:00:43.834Z,77.33
2023-01-26T02:04:27.272Z,77.35
2023-01-26T02:08:11.081Z,78.61
2023-01-26T02:11:53.782Z,78.87
2023-01-26T02:15:36.813Z,78.17
2023-01-26T02:19:27.619Z,77.97
2023-01-26T02:23:20.488Z,78.05
2023-01-26T02:27:04.739Z,78.63
2023-01-26T02:30:47.756Z,79.30
2023-01-26T02:34:30.452Z,79.74
2023-01-26T02:38:13.219Z,79.13
2023-01-26T02:42:13.926Z,78.36
2023-01-26T02:45:58.104Z,78.33
2023-01-26T02:49:50.755Z,79.16
2023-01-26T02:53:33.645Z,80.63
2023-01-26T02:57:16.297Z,81.58
2023-01-26T03:01:00.360Z,82.05
2023-01-26T03:04:43.783Z,82.33
2023-01-26T03:08:26.755Z,82.00
2023-01-26T03:12:09.502Z,82.03
2023-01-26T03:15:54.709Z,81.49
2023-01-26T03:19:56.114Z,81.73
2023-01-26T03:23:56.588Z,81.66
2023-01-26T03:27:43.425Z,81.76
2023-01-26T03:31:26.147Z,80.34
2023-01-26T03:35:15.968Z,81.22
2023-01-26T03:38:58.695Z,81.77
2023-01-26T03:42:59.144Z,81.92
2023-01-26T03:46:59.194Z,80.48
2023-01-26T03:51:00.587Z,79.34
2023-01-26T03:55:01.056Z,79.55
2023-01-26T03:58:43.712Z,80.38
2023-01-26T04:02:44.157Z,80.50
2023-01-26T04:06:45.936Z,81.97
2023-01-26T04:10:28.994Z,80.86
2023-01-26T04:14:30.215Z,81.59
2023-01-26T04:18:34.364Z,82.50
2023-01-26T04:22:18.376Z,82.52
2023-01-26T04:26:01.020Z,82.88
2023-01-26T04:29:43.720Z,81.95
2023-01-26T04:33:26.424Z,81.15
2023-01-26T04:37:10.413Z,81.05
2023-01-26T04:40:55.679Z,80.49
2023-01-26T04:44:38.362Z,80.27
2023-01-26T04:48:21.046Z,79.83
2023-01-26T04:52:03.727Z,79.75
2023-01-26T04:55:46.378Z,78.27
2023-01-26T04:59:30.688Z,77.47
2023-01-26T05:03:13.335Z,77.86
2023-01-26T05:06:56.112Z,78.04
2023-01-26T05:10:38.852Z,79.20
2023-01-26T05:14:21.481Z,78.09
2023-01-26T05:18:06.149Z,77.55
2023-01-26T05:21:48.853Z,79.23
2023-01-26T05:25:31.816Z,79.54
2023-01-26T05:29:14.746Z,78.93
2023-01-26T05:33:02.016Z,79.71
2023-01-26T05:36:46.052Z,79.53
2023-01-26T05:40:28.821Z,79.19
2023-01-26T05:44:11.704Z,78.29
2023-01-26T05:47:54.428Z,78.83
2023-01-26T05:51:37.074Z,78.52
2023-01-26T05:55:21.244Z,79.48
2023-01-26T05:59:03.948Z,80.10
2023-01-26T06:02:48.611Z,80.60
2023-01-26T06:06:31.475Z,81.04
2023-01-26T06:10:14.337Z,81.73
2023-01-26T06:13:58.386Z,81.50
2023-01-26T06:17:41.222Z,79.95
2023-01-26T06:21:23.879Z,80.16
2023-01-26T06:25:07.031Z,80.75
2023-01-26T06:28:49.768Z,80.66
2023-01-26T06:32:33.695Z,80.28
2023-01-26T06:36:16.668Z,81.21
2023-01-26T06:39:59.493Z,80.83
2023-01-26T06:43:45.635Z,81.67
2023-01-26T06:47:28.358Z,80.58
2023-01-26T06:51:46.439Z,79.27
2023-01-26T06:55:35.769Z,78.88
2023-01-26T06:59:18.449Z,79.35
2023-01-26T07:03:01.216Z,79.41
2023-01-26T07:06:43.991Z,79.16
2023-01-26T07:10:26.658Z,79.71
2023-01-26T07:14:10.621Z,80.08
2023-01-26T07:17:54.527Z,80.15
2023-01-26T07:21:39.102Z,79.90
2023-01-26T07:25:21.822Z,78.60
2023-01-26T07:29:04.495Z,79.13
2023-01-26T07:32:48.587Z,79.03
2023-01-26T07:36:31.308Z,78.27
2023-01-26T07:40:14.461Z,77.47
2023-01-26T07:43:57.274Z,78.12
2023-01-26T07:47:39.906Z,78.64
2023-01-26T07:51:23.930Z,78.13
2023-01-26T07:55:07.531Z,78.92
2023-01-26T07:58:51.563Z,81.33
2023-01-26T08:02:34.386Z,81.99
2023-01-26T08:06:18.431Z,81.83
2023-01-26T08:10:02.816Z,80.13
2023-01-26T08:13:45.470Z,80.10
2023-01-26T08:17:29.626Z,79.33
2023-01-26T08:21:12.515Z,78.57
2023-01-26T08:24:55.126Z,78.28
2023-01-26T08:28:39.078Z,77.34
2023-01-26T08:32:21.744Z,78.11
2023-01-26T08:36:05.315Z,77.93
2023-01-26T08:39:47.962Z,77.44
2023-01-26T08:43:31.061Z,76.11
2023-01-26T08:47:15.073Z,77.31
2023-01-26T08:50:58.621Z,78.09
2023-01-26T08:54:41.291Z,78.13
2023-01-26T08:58:23.992Z,78.45
2023-01-26T09:02:07.025Z,77.61
2023-01-26T09:05:51.065Z,77.67
2023-01-26T09:09:34.443Z,77.70
2023-01-26T09:13:17.115Z,77.18
2023-01-26T09:16:59.803Z,76.34
2023-01-26T09:20:42.511Z,76.78
2023-01-26T09:24:26.690Z,77.42
2023-01-26T09:28:09.389Z,76.89
2023-01-26T09:31:52.238Z,76.61
2023-01-26T09:35:34.926Z,75.47
2023-01-26T09:39:20.622Z,74.76
2023-01-26T09:43:18.576Z,75.69
2023-01-26T09:47:07.797Z,76.87
2023-01-26T09:50:55.637Z,76.66
2023-01-26T09:54:41.359Z,76.00
2023-01-26T09:58:33.478Z,75.65
2023-01-26T10:02:26.895Z,75.73
2023-01-26T10:06:15.445Z,76.10
2023-01-26T10:09:58.455Z,75.68
2023-01-26T10:13:46.277Z,75.09
2023-01-26T10:17:32.733Z,75.76
2023-01-26T10:21:16.840Z,73.25
2023-01-26T10:25:01.128Z,73.72
2023-01-26T10:28:46.750Z,75.01
2023-01-26T10:32:29.478Z,75.38
2023-01-26T10:36:13.670Z,74.81
2023-01-26T10:40:01.590Z,74.84
2023-01-26T10:43:51.956Z,75.41
2023-01-26T10:47:34.649Z,75.52
2023-01-26T10:51:24.841Z,75.43
2023-01-26T10:55:13.676Z,75.56
2023-01-26T10:59:03.077Z,75.11
2023-01-26T11:02:51.876Z,76.68
2023-01-26T11:06:35.422Z,75.44
2023-01-26T11:10:24.566Z,75.65
2023-01-26T11:14:17.920Z,75.06
2023-01-26T11:18:02.105Z,74.64
2023-01-26T11:21:49.653Z,74.09
2023-01-26T11:25:38.871Z,75.41
2023-01-26T11:29:38.321Z,73.33
2023-01-26T11:33:28.716Z,74.14
2023-01-26T11:37:33.015Z,73.26
2023-01-26T11:41:26.004Z,74.29
2023-01-26T11:45:23.344Z,72.72
2023-01-26T11:49:17.240Z,71.88
2023-01-26T11:53:15.984Z,72.14
2023-01-26T11:57:07.364Z,72.95
2023-01-26T12:00:53.920Z,73.18
2023-01-26T12:04:39.168Z,74.94
2023-01-26T12:08:24.985Z,74.86
2023-01-26T12:12:11.764Z,74.38
2023-01-26T12:15:59.371Z,73.45
2023-01-26T12:19:46.243Z,73.38
2023-01-26T12:23:33.387Z,73.85
2023-01-26T12:27:19.753Z,74.48
2023-01-26T12:31:08.042Z,73.81
2023-01-26T12:34:51.122Z,72.62
2023-01-26T12:38:42.008Z,73.61
2023-01-26T12:42:31.174Z,73.69
2023-01-26T12:46:15.735Z,73.03
2023-01-26T12:50:01.999Z,73.06
2023-01-26T12:53:50.728Z,73.51
2023-01-26T12:57:37.095Z,72.78
2023-01-26T13:01:23.799Z,72.29
2023-01-26T13:05:07.903Z,72.46
2023-01-26T13:08:54.668Z,72.09
2023-01-26T13:12:48.397Z,72.27
2023-01-26T13:16:36.115Z,72.27
2023-01-26T13:20:27.406Z,73.29
2023-01-26T13:24:43.516Z,72.25
2023-01-26T13:28:28.873Z,72.40
2023-01-26T13:36:47.685Z,72.07
2023-01-26T13:40:33.305Z,73.26
2023-01-26T13:44:18.387Z,71.62
2023-01-26T13:48:03.578Z,71.95
2023-01-26T13:51:47.736Z,72.53
2023-01-26T13:55:32.122Z,72.79
2023-01-26T13:59:16.575Z,72.71
2023-01-26T14:02:59.249Z,72.23
2023-01-26T14:06:43.415Z,72.25
2023-01-26T14:10:28.103Z,71.27
2023-01-26T14:14:20.912Z,71.41
2023-01-26T14:18:05.491Z,71.56
2023-01-26T14:21:51.152Z,71.40
2023-01-26T14:25:35.841Z,71.22
2023-01-26T14:29:22.564Z,71.12
2023-01-26T14:33:06.782Z,70.17
2023-01-26T14:36:49.581Z,70.10
2023-01-26T14:40:32.356Z,70.83
2023-01-26T14:44:16.865Z,70.15
2023-01-26T14:48:03.046Z,70.38
2023-01-26T14:51:46.804Z,72.00
2023-01-26T14:55:31.098Z,71.65
2023-01-26T14:59:22.003Z,72.11
2023-01-26T15:03:07.456Z,73.66
2023-01-26T15:06:50.100Z,73.97
2023-01-26T15:10:36.521Z,73.94
2023-01-26T15:14:32.137Z,73.50
2023-01-26T15:18:19.914Z,72.81
2023-01-26T15:22:02.607Z,73.60
2023-01-26T15:25:45.433Z,73.54
2023-01-26T15:29:32.312Z,73.86
2023-01-26T15:33:39.721Z,73.55
2023-01-26T15:37:29.999Z,73.01
2023-01-26T15:41:12.724Z,72.86
2023-01-26T15:44:56.921Z,72.62
2023-01-26T15:48:39.768Z,73.43
2023-01-26T15:52:25.448Z,73.64
2023-01-26T15:56:13.268Z,73.82
2023-01-26T15:59:57.750Z,74.73
2023-01-26T16:03:40.376Z,74.44
2023-01-26T16:07:23.061Z,73.53
2023-01-26T16:11:09.674Z,73.43
2023-01-26T16:14:52.358Z,73.63
2023-01-26T16:18:36.566Z,73.42
2023-01-26T16:22:19.336Z,72.91
2023-01-26T16:26:01.998Z,72.87
2023-01-26T16:29:44.700Z,73.02
2023-01-26T16:33:27.482Z,73.71
2023-01-26T16:37:11.784Z,74.25
2023-01-26T16:40:54.865Z,73.19
2023-01-26T16:44:37.536Z,73.54
2023-01-26T16:48:20.342Z,74.04
2023-01-26T16:52:03.128Z,73.82
2023-01-26T16:55:47.185Z,74.25
2023-01-26T16:59:30.006Z,73.98
2023-01-26T17:03:13.846Z,74.13
2023-01-26T17:06:56.640Z,73.07
2023-01-26T17:10:51.864Z,73.46
2023-01-26T17:14:43.771Z,73.55
2023-01-26T17:18:27.122Z,72.91
2023-01-26T17:22:09.770Z,72.74
2023-01-26T17:25:58.499Z,72.00
2023-01-26T17:29:42.206Z,72.08
2023-01-26T17:33:26.433Z,71.86
2023-01-26T17:37:09.505Z,73.00
2023-01-26T17:40:55.611Z,72.51
2023-01-26T17:44:38.365Z,72.52
2023-01-26T17:48:20.976Z,73.69
2023-01-26T17:52:06.210Z,73.17
2023-01-26T17:55:48.811Z,74.86
2023-01-26T17:59:31.512Z,75.52
2023-01-26T18:03:14.291Z,74.72
2023-01-26T18:06:57.003Z,73.26
2023-01-26T18:10:41.312Z,72.65
2023-01-26T18:14:24.006Z,73.65
2023-01-26T18:18:06.834Z,73.41
2023-01-26T18:21:51.193Z,73.97
2023-01-26T18:25:34.706Z,73.80
2023-01-26T18:29:18.810Z,73.62
2023-01-26T18:33:01.565Z,74.06
2023-01-26T18:36:44.230Z,74.59
2023-01-26T18:40:26.921Z,74.38
2023-01-26T18:44:09.684Z,73.66
2023-01-26T18:47:53.660Z,73.24
2023-01-26T18:51:37.192Z,73.73
2023-01-26T18:55:22.528Z,73.59
2023-01-26T18:59:06.412Z,73.87
2023-01-26T19:02:49.084Z,74.67
2023-01-26T19:06:33.641Z,74.68
2023-01-26T19:10:17.222Z,74.83
2023-01-26T19:14:01.283Z,74.05
2023-01-26T19:17:44.920Z,73.46
2023-01-26T19:21:28.109Z,73.97
2023-01-26T19:25:12.812Z,74.50
2023-01-26T19:28:55.840Z,73.77
2023-01-26T19:32:38.556Z,73.71
2023-01-26T19:36:21.382Z,74.40
2023-01-26T19:40:04.223Z,73.60
2023-01-26T19:43:50.355Z,73.50
2023-01-26T19:47:33.343Z,74.02
2023-01-26T19:51:17.739Z,73.22
2023-01-26T19:55:00.408Z,73.57
2023-01-26T19:58:43.869Z,73.04
2023-01-26T20:02:27.885Z,72.78
2023-01-26T20:06:15.847Z,73.14
2023-01-26T20:09:58.525Z,73.40
2023-01-26T20:13:41.293Z,72.80
2023-01-26T20:17:23.915Z,72.53
2023-01-26T20:21:08.206Z,72.01
2023-01-26T20:24:50.882Z,72.02
2023-01-26T20:28:33.716Z,71.97
2023-01-26T20:32:16.342Z,73.11
2023-01-26T20:35:58.977Z,73.00
2023-01-26T20:39:45.419Z,73.67
2023-01-26T20:43:29.488Z,73.37
2023-01-26T20:47:12.515Z,73.25
2023-01-26T20:50:55.177Z,71.29
2023-01-26T20:54:37.897Z,70.06
2023-01-26T20:58:22.038Z,70.14
2023-01-26T21:02:05.241Z,71.18
2023-01-26T21:05:47.923Z,71.62
2023-01-26T21:09:30.557Z,72.60
2023-01-26T21:13:13.323Z,73.25
2023-01-26T21:16:57.382Z,73.64
2023-01-26T21:20:40.061Z,74.00
2023-01-26T21:24:23.237Z,74.88
2023-01-26T21:28:06.246Z,74.38
2023-01-26T21:31:51.999Z,74.08
2023-01-26T21:35:36.085Z,75.18
2023-01-26T21:39:21.117Z,75.32
2023-01-26T21:43:04.772Z,75.75
2023-01-26T21:46:48.766Z,74.79
2023-01-26T21:50:51.411Z,75.00
2023-01-26T21:54:35.828Z,75.42
2023-01-26T21:58:36.122Z,75.78
2023-01-26T22:02:18.772Z,74.84
2023-01-26T22:06:01.523Z,75.96
2023-01-26T22:09:45.584Z,76.29
2023-01-26T22:13:31.326Z,83.84
2023-01-26T22:17:13.976Z,80.80
2023-01-26T22:20:56.833Z,78.71
2023-01-26T22:24:39.942Z,76.89
2023-01-26T22:28:24.025Z,74.29
2023-01-26T22:32:06.827Z,74.61
2023-01-26T22:35:49.563Z,74.53
2023-01-26T22:39:32.209Z,74.73
2023-01-26T22:43:14.898Z,75.49
2023-01-26T22:46:58.922Z,76.10
2023-01-26T22:50:41.595Z,76.78
2023-01-26T22:54:24.250Z,77.44
2023-01-26T22:58:06.892Z,77.53
2023-01-26T23:01:49.572Z,78.38
2023-01-26T23:05:34.209Z,79.09
2023-01-26T23:09:16.858Z,79.80
2023-01-26T23:12:59.549Z,80.31
2023-01-26T23:16:42.297Z,80.56
2023-01-26T23:20:24.931Z,80.67
2023-01-26T23:24:09.742Z,79.68
2023-01-26T23:27:52.472Z,80.39
2023-01-26T23:31:35.217Z,80.61
2023-01-26T23:35:18.456Z,80.57
2023-01-26T23:39:01.149Z,81.50
2023-01-26T23:43:06.906Z,81.39
2023-01-26T23:46:50.913Z,81.89
2023-01-26T23:50:33.690Z,81.09
2023-01-26T23:54:16.497Z,80.37
2023-01-26T23:58:00.541Z,81.01
